Latest Weather Observations for West Wyalong

IDN60801

Issued at 11:32 am EDT Wednesday 10 February 2016 (issued every 30 minutes, with the page automatically refreshed every 10 minutes)

About weather observations | Map of weather stations | Latest weather observations for NSW | Other Formats
Station Details ID: 050017 Name: WEST WYALONG AIRPORT AWS Lat: -33.94 Lon: 147.20 Height: 257.0 m
Data from the previous 72 hours. | See also: Recent months at West Wyalong
Date/Time
EDT
Temp
°C
App
Temp
°C
Dew
Point
Rel
Hum
%
Delta-T
°C
Wind Press
QNH
hPa
Press
MSL
hPa
Rain
since 9 am
mm
Dir
 
Spd
km/h
Gust
km/h
Spd
kts
Gust
kts
10/11:30am 29.7 26.2 12.2 34 10.3 NNW 22 32 12 17 1015.2 1013.8 0.0
10/11:00am 28.6 25.2 12.5 37 9.5 N 22 30 12 16 1015.5 1014.1 0.0
10/10:30am 27.7 24.7 12.5 39 9.0 N 20 30 11 16 1015.8 1014.4 0.0
10/10:00am 26.8 23.2 13.2 43 8.1 N 24 33 13 18 1015.9 1014.5 0.0
10/09:30am 25.6 22.7 14.1 49 6.9 N 22 32 12 17 1016.0 1014.6 0.0
10/09:00am 24.2 21.4 14.3 54 5.9 N 22 28 12 15 1016.0 1014.6 0.0
10/08:30am 23.5 21.3 14.8 58 5.2 N 20 28 11 15 1016.1 1014.7 0.0
10/08:00am 22.7 21.0 14.8 61 4.7 N 17 24 9 13 1016.1 1014.7 0.0
10/07:30am 21.9 21.7 14.8 64 4.2 NNE 9 13 5 7 1015.7 1014.3 0.0
10/07:00am 21.6 20.3 14.7 65 4.1 N 15 19 8 10 1015.3 1013.9 0.0
10/06:30am 21.4 20.8 14.6 65 4.0 N 11 15 6 8 1015.1 1013.7 0.0
10/06:00am 21.9 20.8 14.3 62 4.5 N 13 15 7 8 1014.9 1013.5 0.0
10/05:30am 22.2 21.5 14.3 61 4.7 N 11 15 6 8 1014.7 1013.3 0.0
10/05:00am 22.7 21.2 14.3 59 5.0 N 15 17 8 9 1014.5 1013.1 0.0
10/04:30am 22.9 22.0 13.7 56 5.4 NNW 11 13 6 7 1014.6 1013.2 0.0
10/04:00am 23.3 22.7 13.5 54 5.8 NW 9 11 5 6 1014.7 1013.3 0.0
10/03:30am 24.4 22.3 13.6 51 6.4 NNW 17 24 9 13 1014.5 1013.1 0.0
10/03:00am 24.9 22.2 13.5 49 6.7 N 20 30 11 16 1014.1 1012.7 0.0
10/02:30am 25.2 22.3 12.8 46 7.3 NNE 20 28 11 15 1014.2 1012.8 0.0
10/02:00am 25.1 22.2 10.9 41 8.0 NNE 17 22 9 12 1014.4 1013.0 0.0
10/01:30am 23.6 21.8 11.0 45 7.1 NE 11 15 6 8 1014.6 1013.2 0.0
10/01:00am 21.2 20.8 11.0 52 5.7 E 4 9 2 5 1014.9 1013.5 0.0
10/12:30am 21.1 20.6 10.6 51 5.8 E 4 7 2 4 1015.1 1013.7 0.0
10/12:00am 22.2 22.6 11.3 50 6.1 CALM 0 2 0 1 1015.2 1013.8 0.0
 
Date/Time
EDT
Temp
°C
App
Temp
°C
Dew
Point
Rel
Hum
%
Delta-T
°C
Wind Press
QNH
hPa
Press
MSL
hPa
Rain
since 9 am
mm
Dir
 
Spd
km/h
Gust
km/h
Spd
kts
Gust
kts
09/11:30pm 22.1 22.4 10.9 49 6.3 CALM 0 6 0 3 1015.3 1013.9 0.0
09/11:00pm 23.3 23.7 11.4 47 6.7 CALM 0 6 0 3 1015.5 1014.1 0.0
09/10:30pm 24.1 24.5 11.1 44 7.4 CALM 0 0 0 0 1015.6 1014.2 0.0
09/10:00pm 25.0 25.1 10.1 39 8.3 CALM 0 0 0 0 1015.6 1014.2 0.0
09/09:30pm 25.2 25.0 9.1 36 8.9 CALM 0 0 0 0 1015.4 1014.0 0.0
09/09:00pm 27.3 27.0 8.7 31 10.3 CALM 0 0 0 0 1015.3 1013.9 0.0
09/08:30pm 28.9 28.0 9.1 29 11.1 ESE 4 6 2 3 1015.2 1013.8 0.0
09/08:00pm 31.3 29.9 8.9 25 12.6 SE 6 9 3 5 1015.2 1013.8 0.0
09/07:30pm 33.2 31.4 7.9 21 14.2 S 7 13 4 7 1015.1 1013.7 0.0
09/07:00pm 33.8 32.3 7.0 19 14.9 SW 4 9 2 5 1014.8 1013.4 0.0
09/06:30pm 33.7 31.4 7.6 20 14.6 S 9 13 5 7 1014.8 1013.4 0.0
09/06:00pm 34.2 32.0 8.0 20 14.8 SE 9 15 5 8 1014.9 1013.5 0.0
09/05:30pm 34.0 31.8 7.9 20 14.7 ENE 9 17 5 9 1015.1 1013.7 0.0
09/05:00pm 33.7 31.6 8.3 21 14.4 WSW 9 15 5 8 1015.4 1014.0 0.0
09/04:30pm 32.7 31.3 8.9 23 13.5 W 6 15 3 8 1015.9 1014.5 0.0
09/04:00pm 33.3 31.6 10.0 24 13.5 SE 9 17 5 9 1016.3 1014.9 0.0
09/03:30pm 33.3 31.3 10.0 24 13.5 ESE 11 17 6 9 1016.8 1015.5 0.0
09/03:00pm 33.4 32.5 11.3 26 13.1 NNW 7 13 4 7 1017.3 1015.9 0.0
09/02:30pm 32.8 31.0 10.8 26 12.9 N 11 17 6 9 1017.7 1016.3 0.0
09/02:00pm 32.8 30.7 11.3 27 12.7 NNE 13 20 7 11 1018.2 1016.8 0.0
09/01:30pm 32.4 30.4 11.6 28 12.3 NNE 13 26 7 14 1018.5 1017.1 0.0
09/01:00pm 31.2 29.9 11.1 29 11.7 N 9 15 5 8 1018.9 1017.5 0.0
09/12:30pm 31.6 28.8 11.4 29 11.9 NNE 17 24 9 13 1019.4 1018.0 0.0
09/12:00pm 30.1 28.1 11.6 32 10.8 NE 13 20 7 11 1019.7 1018.3 0.0
09/11:30am 29.3 27.4 11.8 34 10.3 NE 13 22 7 12 1020.1 1018.8 0.0
09/11:00am 28.2 26.3 11.7 36 9.6 NNE 13 19 7 10 1020.2 1018.9 0.0
09/10:30am 27.7 25.1 12.1 38 9.1 NNE 17 24 9 13 1020.4 1019.1 0.0
09/10:00am 26.5 23.6 12.2 41 8.3 NE 19 24 10 13 1020.4 1019.1 0.0
09/09:30am 25.2 22.5 12.8 46 7.3 NE 19 24 10 13 1020.5 1019.2 0.0
09/09:00am 24.1 21.8 13.0 50 6.5 ENE 17 24 9 13 1020.4 1019.1 0.0
09/08:30am 22.6 20.4 13.4 56 5.4 ENE 17 20 9 11 1020.3 1019.0 0.0
09/08:00am 21.3 19.4 13.0 59 4.8 E 15 22 8 12 1020.0 1018.7 0.0
09/07:30am 20.1 18.9 12.8 63 4.2 E 11 17 6 9 1019.8 1018.4 0.0
09/07:00am 18.4 17.5 10.8 61 4.1 ESE 6 7 3 4 1019.6 1018.2 0.0
09/06:30am 18.4 17.4 10.3 59 4.4 E 6 9 3 5 1019.2 1017.8 0.0
09/06:00am 18.9 17.4 10.5 58 4.6 E 9 13 5 7 1018.8 1017.4 0.0
09/05:30am 18.1 16.7 9.5 57 4.6 E 7 11 4 6 1018.4 1017.0 0.0
09/05:00am 18.0 16.2 9.6 58 4.5 ESE 9 11 5 6 1018.1 1016.7 0.0
09/04:30am 19.1 18.3 9.6 54 5.1 E 4 7 2 4 1017.8 1016.4 0.0
09/04:00am 19.7 19.2 9.3 51 5.6 SSE 2 6 1 3 1017.8 1016.4 0.0
09/03:30am 19.5 18.1 9.7 53 5.3 ESE 7 9 4 5 1017.6 1016.2 0.0
09/03:00am 20.3 20.4 10.1 52 5.6 CALM 0 0 0 0 1017.4 1016.0 0.0
09/02:30am 20.0 20.2 10.4 54 5.3 CALM 0 4 0 2 1017.5 1016.1 0.0
09/02:00am 20.3 19.8 12.5 61 4.4 ESE 7 9 4 5 1017.4 1016.0 0.0
09/01:30am 21.0 21.2 11.9 56 5.1 ESE 2 7 1 4 1017.3 1015.9 0.0
09/01:00am 21.6 22.0 11.3 52 5.8 CALM 0 0 0 0 1017.3 1015.9 0.0
09/12:30am 22.3 21.6 12.0 52 5.9 SW 7 11 4 6 1017.1 1015.7 0.0
09/12:00am 22.7 22.8 11.4 49 6.4 ENE 2 7 1 4 1017.1 1015.7 0.0
 
Date/Time
EDT
Temp
°C
App
Temp
°C
Dew
Point
Rel
Hum
%
Delta-T
°C
Wind Press
QNH
hPa
Press
MSL
hPa
Rain
since 9 am
mm
Dir
 
Spd
km/h
Gust
km/h
Spd
kts
Gust
kts
08/11:30pm 23.0 23.4 11.1 47 6.7 CALM 0 0 0 0 1016.9 1015.6 0.0
08/11:00pm 24.0 24.1 10.3 42 7.6 CALM 0 0 0 0 1016.9 1015.6 0.0
08/10:30pm 24.4 24.6 10.7 42 7.7 CALM 0 0 0 0 1017.1 1015.7 0.0
08/10:00pm 25.4 25.0 9.7 37 8.7 SSE 2 6 1 3 1017.1 1015.7 0.0
08/09:30pm 26.9 26.4 9.3 33 9.8 SSW 2 6 1 3 1016.8 1015.5 0.0
08/09:00pm 28.4 26.8 8.7 29 10.9 SE 7 9 4 5 1016.5 1015.1 0.0
08/08:30pm 29.5 27.5 8.5 27 11.7 SE 9 13 5 7 1016.2 1014.8 0.0
08/08:00pm 31.6 28.8 8.6 24 12.9 SSE 13 20 7 11 1016.0 1014.6 0.0
08/07:30pm 33.1 29.0 8.5 22 13.9 SSE 20 28 11 15 1015.8 1014.4 0.0
08/07:00pm 33.5 29.8 9.5 23 13.8 S 19 26 10 14 1015.5 1014.1 0.0
08/06:30pm 34.2 31.0 10.1 23 14.1 SSE 17 30 9 16 1015.3 1013.9 0.0
08/06:00pm 34.2 30.3 9.4 22 14.3 SE 20 30 11 16 1015.4 1014.0 0.0
08/05:30pm 34.3 31.2 10.2 23 14.1 SE 17 26 9 14 1015.6 1014.2 0.0
08/05:00pm 34.2 31.0 10.1 23 14.0 ESE 17 26 9 14 1015.8 1014.4 0.0
08/04:30pm 34.2 30.6 10.7 24 13.8 SE 20 32 11 17 1016.1 1014.7 0.0
08/04:00pm 34.8 32.0 11.2 24 14.0 SSE 17 26 9 14 1016.3 1014.9 0.0
08/03:30pm 34.2 30.5 10.1 23 14.1 SE 20 28 11 15 1016.7 1015.4 0.0
08/03:00pm 34.4 30.7 10.3 23 14.1 SE 20 33 11 18 1017.2 1015.8 0.0
08/02:30pm 33.3 30.3 10.6 25 13.3 S 17 26 9 14 1017.5 1016.1 0.0
08/02:00pm 32.8 30.2 10.8 26 12.9 SSE 15 26 8 14 1018.0 1016.6 0.0
08/01:30pm 32.6 29.6 10.6 26 12.8 S 17 28 9 15 1018.4 1017.0 0.0
08/01:00pm 32.5 29.5 10.5 26 12.8 SSE 17 26 9 14 1018.5 1017.1 0.0
08/12:30pm 31.7 29.6 9.8 26 12.6 SE 11 20 6 11 1018.9 1017.5 0.0
08/12:00pm 30.6 28.6 10.0 28 11.8 ESE 11 19 6 10 1019.3 1017.9 0.0
08/11:30am 30.6 28.8 9.5 27 12.0 ESE 9 20 5 11 1019.4 1018.0 0.0
08/11:00am 28.9 27.0 9.1 29 11.1 SE 9 13 5 7 1019.5 1018.1 0.0
08/10:30am 28.5 27.7 11.6 35 9.8 ENE 7 11 4 6 1019.7 1018.3 0.0
08/10:00am 26.7 26.0 12.0 40 8.5 NNE 7 11 4 6 1019.8 1018.4 0.0
08/09:30am 26.0 25.5 12.5 43 7.9 E 7 11 4 6 1019.9 1018.5 0.0
08/09:00am 24.6 24.2 12.9 48 6.8 E 7 11 4 6 1019.9 1018.5 0.0
08/08:30am 22.9 22.5 13.1 54 5.7 ESE 7 11 4 6 1019.7 1018.3 0.0
08/08:00am 21.3 22.2 13.0 59 4.8 CALM 0 6 0 3 1019.4 1018.0 0.0
08/07:30am 18.4 19.0 11.9 66 3.6 CALM 0 6 0 3 1019.2 1017.8 0.0
08/07:00am 16.3 16.7 11.2 72 2.8 CALM 0 0 0 0 1018.9 1017.5 0.0
08/06:30am 16.2 16.4 10.7 70 3.0 CALM 0 0 0 0 1018.6 1017.2 0.0
08/06:00am 16.6 16.8 10.7 68 3.2 CALM 0 0 0 0 1018.1 1016.7 0.0
08/05:30am 17.1 17.3 10.5 65 3.6 CALM 0 0 0 0 1018.0 1016.6 0.0
08/05:00am 18.2 17.3 10.8 62 4.0 E 6 7 3 4 1017.7 1016.3 0.0
08/04:30am 17.9 17.8 10.8 63 3.9 SE 2 7 1 4 1017.6 1016.2 0.0
08/04:00am 17.7 17.7 11.3 66 3.5 SSE 2 7 1 4 1017.5 1016.1 0.0
08/03:30am 17.6 17.7 10.2 62 4.0 CALM 0 0 0 0 1017.2 1015.8 0.0
08/03:00am 18.5 18.5 9.8 57 4.7 CALM 0 0 0 0 1017.4 1016.0 0.0
08/02:30am 18.9 18.9 9.9 56 4.9 CALM 0 0 0 0 1017.5 1016.1 0.0
08/02:00am 19.4 19.3 9.6 53 5.3 CALM 0 0 0 0 1017.6 1016.2 0.0
08/01:30am 19.0 19.0 9.8 55 5.0 CALM 0 0 0 0 1017.6 1016.2 0.0
08/01:00am 19.0 18.8 9.2 53 5.2 CALM 0 0 0 0 1017.6 1016.2 0.0
08/12:30am 19.7 19.6 9.3 51 5.6 CALM 0 0 0 0 1017.5 1016.1 0.0
08/12:00am 20.8 20.4 8.4 45 6.6 CALM 0 0 0 0 1017.3 1015.9 0.0
 
Date/Time
EDT
Temp
°C
App
Temp
°C
Dew
Point
Rel
Hum
%
Delta-T
°C
Wind Press
QNH
hPa
Press
MSL
hPa
Rain
since 9 am
mm
Dir
 
Spd
km/h
Gust
km/h
Spd
kts
Gust
kts
07/11:30pm 21.8 21.4 8.3 42 7.2 CALM 0 0 0 0 1017.2 1015.8 0.0
07/11:00pm 23.2 21.6 8.1 38 8.1 SW 6 7 3 4 1017.1 1015.7 0.0
07/10:30pm 23.4 21.2 7.9 37 8.3 SSW 9 11 5 6 1016.8 1015.5 0.0
07/10:00pm 23.6 21.3 7.3 35 8.6 SSW 9 11 5 6 1016.7 1015.4 0.0
07/09:30pm 25.1 22.8 7.3 32 9.5 S 9 11 5 6 1016.3 1014.9 0.0
07/09:00pm 26.4 23.5 6.4 28 10.6 S 11 13 6 7 1015.9 1014.5 0.0
07/08:30pm 27.5 24.4 5.7 25 11.4 S 11 13 6 7 1015.5 1014.1 0.0
07/08:00pm 29.1 25.4 4.6 21 12.7 SSE 13 17 7 9 1015.3 1013.9 0.0
07/07:30pm 30.5 25.8 5.0 20 13.5 SE 19 24 10 13 1014.9 1013.5 0.0
07/07:00pm 31.0 26.2 5.4 20 13.6 SE 20 26 11 14 1014.7 1013.3 0.0
07/06:30pm 31.4 27.1 7.1 22 13.3 SE 19 26 10 14 1014.5 1013.1 0.0
07/06:00pm 31.5 27.1 7.2 22 13.4 ESE 20 28 11 15 1014.4 1013.0 0.0
07/05:30pm 31.6 27.2 6.6 21 13.6 SSE 19 26 10 14 1014.7 1013.3 0.0
07/05:00pm 31.9 27.7 7.5 22 13.5 SE 19 26 10 14 1014.7 1013.3 0.0
07/04:30pm 31.5 28.2 9.7 26 12.5 SE 17 28 9 15 1014.8 1013.4 0.0
07/04:00pm 31.0 26.9 8.7 25 12.5 SSE 20 32 11 17 1015.0 1013.6 0.0
07/03:30pm 30.4 25.9 8.7 26 12.2 ESE 22 32 12 17 1015.2 1013.8 0.0
07/03:00pm 31.4 27.9 10.2 27 12.2 SE 19 30 10 16 1015.5 1014.1 0.0
07/02:30pm 31.0 28.1 10.9 29 11.7 SSE 17 26 9 14 1015.8 1014.4 0.0
07/02:00pm 29.4 27.9 11.9 34 10.3 SE 11 19 6 10 1016.1 1014.7 0.0
07/01:30pm 29.0 26.1 11.1 33 10.4 SSE 17 26 9 14 1016.5 1015.1 0.0
07/01:00pm 27.8 25.8 11.4 36 9.5 SSE 13 26 7 14 1016.8 1015.5 0.0
07/12:30pm 27.8 26.1 12.6 39 9.0 S 13 20 7 11 1017.3 1015.9 0.0
07/12:00pm 27.1 26.4 13.1 42 8.3 E 9 15 5 8 1017.6 1016.2 0.0

Other Formats:

Comma delimited format used in spreadsheet applications
http://www.bom.gov.au/fwo/IDN60801/IDN60801.95709.axf

JavaScript Object Notation format (JSON) in row-major order
http://www.bom.gov.au/fwo/IDN60801/IDN60801.95709.json